Time;durP1;ratioP1;P1;durP2;ratioP2;P2;SDS_P1;SDS_P2;PMS_P1;PMS_P2;Temp;Humidity;BMP_temperature;BMP_pressure;BME280_temperature;BME280_humidity;BME280_pressure;Samples;Min_cycle;Max_cycle;Signal;HPM_P1;HPM_P2
2023/01/02 00:00:59;;;;;;;6.63;4.10;;;;;;;;;;5044352;28;20627;-86
2023/01/02 00:04:03;;;;;;;6.13;3.60;;;;;;;;;;5043809;28;20184;-86
2023/01/02 00:07:07;;;;;;;6.10;4.50;;;;;;;;;;5032290;28;20192;-86
2023/01/02 00:10:11;;;;;;;6.83;4.00;;;;;;;;;;5055125;28;20662;-86
2023/01/02 00:13:15;;;;;;;7.60;4.23;;;;;;;;;;5032154;28;20220;-86
2023/01/02 00:16:19;;;;;;;8.97;4.30;;;;;;;;;;5043534;28;20180;-86
2023/01/02 00:19:23;;;;;;;5.60;3.80;;;;;;;;;;5043406;28;20227;-86
2023/01/02 00:22:27;;;;;;;6.03;4.03;;;;;;;;;;5031909;28;20215;-86
2023/01/02 00:25:33;;;;;;;5.67;4.00;;;;;;;;;;5043690;28;20176;-86
2023/01/02 00:28:38;;;;;;;6.30;4.50;;;;;;;;;;5032132;28;20176;-86
2023/01/02 00:31:42;;;;;;;5.27;4.13;;;;;;;;;;5032036;28;20208;-85
2023/01/02 00:34:45;;;;;;;6.73;3.93;;;;;;;;;;5042974;28;20546;-86
2023/01/02 00:37:51;;;;;;;6.03;4.17;;;;;;;;;;5031844;28;20184;-86
2023/01/02 00:40:55;;;;;;;5.40;3.60;;;;;;;;;;5043546;28;20195;-86
2023/01/02 00:44:00;;;;;;;10.53;3.93;;;;;;;;;;5032012;28;20180;-85
2023/01/02 00:47:04;;;;;;;8.37;4.00;;;;;;;;;;5031914;28;20180;-85
2023/01/02 00:50:08;;;;;;;5.83;3.70;;;;;;;;;;5054416;28;20176;-86
2023/01/02 00:53:12;;;;;;;5.90;3.77;;;;;;;;;;5031570;28;20208;-86
2023/01/02 00:56:16;;;;;;;6.27;3.90;;;;;;;;;;5032024;28;20172;-86
2023/01/02 00:59:20;;;;;;;5.23;3.80;;;;;;;;;;5055702;28;20208;-85
2023/01/02 01:02:24;;;;;;;5.43;3.30;;;;;;;;;;5031394;28;20213;-85
2023/01/02 01:05:28;;;;;;;6.00;3.60;;;;;;;;;;5031151;28;20691;-85
2023/01/02 01:08:37;;;;;;;4.40;3.83;;;;;;;;;;5031314;28;20172;-86
2023/01/02 01:11:41;;;;;;;5.27;3.57;;;;;;;;;;5031292;28;20216;-86
2023/01/02 01:14:45;;;;;;;5.07;3.30;;;;;;;;;;5042357;28;20199;-86
2023/01/02 01:17:49;;;;;;;5.43;3.67;;;;;;;;;;5031464;28;20195;-85
2023/01/02 01:20:53;;;;;;;6.43;4.30;;;;;;;;;;5031122;28;20181;-85
2023/01/02 01:23:58;;;;;;;5.10;3.70;;;;;;;;;;5023051;28;20184;-84
2023/01/02 01:27:02;;;;;;;6.00;4.07;;;;;;;;;;5011375;28;20180;-85
2023/01/02 01:30:07;;;;;;;5.73;3.53;;;;;;;;;;5024732;28;20197;-84
2023/01/02 01:33:11;;;;;;;6.63;3.30;;;;;;;;;;5013424;28;20224;-85
2023/01/02 01:36:21;;;;;;;6.10;3.53;;;;;;;;;;5029006;28;20185;-85
2023/01/02 01:39:25;;;;;;;5.33;3.50;;;;;;;;;;5020068;28;20209;-85
2023/01/02 01:42:34;;;;;;;4.10;3.30;;;;;;;;;;5031968;28;20212;-85
2023/01/02 01:45:40;;;;;;;5.87;3.60;;;;;;;;;;5035634;28;20180;-84
2023/01/02 01:48:47;;;;;;;8.43;4.13;;;;;;;;;;5013389;28;20173;-85
2023/01/02 01:52:01;;;;;;;5.17;3.53;;;;;;;;;;5015584;28;20216;-85
2023/01/02 01:55:08;;;;;;;6.47;3.60;;;;;;;;;;5017892;28;20185;-85
2023/01/02 01:58:17;;;;;;;6.10;3.50;;;;;;;;;;5019050;28;20177;-85
2023/01/02 02:01:22;;;;;;;5.33;3.93;;;;;;;;;;5019165;28;20185;-86
2023/01/02 02:04:26;;;;;;;6.00;3.50;;;;;;;;;;5029659;28;20197;-86
2023/01/02 02:07:33;;;;;;;6.80;3.90;;;;;;;;;;5018462;28;20181;-86
2023/01/02 02:10:40;;;;;;;5.33;3.53;;;;;;;;;;5014083;28;20243;-86
2023/01/02 02:13:45;;;;;;;5.00;3.50;;;;;;;;;;5013558;28;20188;-85
2023/01/02 02:17:01;;;;;;;7.10;3.83;;;;;;;;;;5014177;28;20189;-85
2023/01/02 02:20:13;;;;;;;5.27;3.27;;;;;;;;;;5023389;28;20625;-85
2023/01/02 02:23:54;;;;;;;5.00;3.60;;;;;;;;;;5012036;28;20224;-85
2023/01/02 02:27:19;;;;;;;7.17;3.40;;;;;;;;;;5012008;28;20177;-85
2023/01/02 02:30:31;;;;;;;5.10;3.50;;;;;;;;;;5023387;28;20181;-85
2023/01/02 02:34:03;;;;;;;4.73;3.60;;;;;;;;;;5011644;28;20524;-85
2023/01/02 02:37:19;;;;;;;5.77;3.80;;;;;;;;;;5025108;28;20181;-85
2023/01/02 02:40:38;;;;;;;6.33;3.60;;;;;;;;;;5010691;28;20205;-86
2023/01/02 02:44:04;;;;;;;6.63;4.13;;;;;;;;;;5011384;28;20181;-85
2023/01/02 02:47:34;;;;;;;6.07;3.63;;;;;;;;;;5034001;28;20185;-85
2023/01/02 02:50:57;;;;;;;6.30;3.63;;;;;;;;;;5010932;28;20532;-85
2023/01/02 02:54:11;;;;;;;5.70;3.10;;;;;;;;;;5022055;28;20189;-85
2023/01/02 02:57:16;;;;;;;6.47;3.63;;;;;;;;;;5022804;28;20177;-85
2023/01/02 03:00:22;;;;;;;5.17;3.57;;;;;;;;;;5025344;28;20220;-86
2023/01/02 03:03:26;;;;;;;7.77;3.80;;;;;;;;;;5017648;28;20675;-83
2023/01/02 03:06:54;;;;;;;7.07;3.53;;;;;;;;;;5018439;28;20176;-85
2023/01/02 03:10:07;;;;;;;8.57;3.50;;;;;;;;;;5029291;28;20181;-85
2023/01/02 03:13:19;;;;;;;3.83;2.87;;;;;;;;;;5038154;28;20576;-85
2023/01/02 03:16:32;;;;;;;5.27;3.20;;;;;;;;;;5036792;28;20177;-85
2023/01/02 03:19:47;;;;;;;6.40;3.90;;;;;;;;;;5025762;28;20209;-85
2023/01/02 03:22:58;;;;;;;4.80;3.50;;;;;;;;;;5014169;28;20217;-85
2023/01/02 03:26:03;;;;;;;5.40;3.60;;;;;;;;;;5014453;28;20193;-85
2023/01/02 03:29:14;;;;;;;4.10;3.20;;;;;;;;;;5036709;28;20592;-85
2023/01/02 03:32:44;;;;;;;4.90;3.20;;;;;;;;;;5035777;28;20217;-84
2023/01/02 03:35:52;;;;;;;4.23;3.07;;;;;;;;;;5010368;28;20177;-86
2023/01/02 03:39:04;;;;;;;4.70;3.33;;;;;;;;;;5010586;28;20209;-85
2023/01/02 03:42:13;;;;;;;6.00;3.77;;;;;;;;;;5044334;28;20217;-85
2023/01/02 03:45:30;;;;;;;4.60;3.50;;;;;;;;;;5041376;28;20631;-86
2023/01/02 03:48:50;;;;;;;5.43;3.70;;;;;;;;;;5028784;28;20196;-85
2023/01/02 03:51:54;;;;;;;5.47;3.73;;;;;;;;;;5032260;28;20227;-85
2023/01/02 03:54:59;;;;;;;3.93;3.03;;;;;;;;;;5035032;28;20176;-85
2023/01/02 03:58:16;;;;;;;3.93;3.23;;;;;;;;;;5036570;28;20184;-85
2023/01/02 04:01:43;;;;;;;4.73;3.30;;;;;;;;;;5044225;28;20173;-87
2023/01/02 04:04:57;;;;;;;4.17;3.30;;;;;;;;;;5045148;28;20208;-85
2023/01/02 04:08:10;;;;;;;4.20;3.20;;;;;;;;;;5045671;28;20180;-85
2023/01/02 04:11:18;;;;;;;6.80;3.47;;;;;;;;;;5035677;28;20181;-85
2023/01/02 04:14:27;;;;;;;4.10;2.83;;;;;;;;;;5032537;28;20188;-86
2023/01/02 04:17:40;;;;;;;7.50;4.50;;;;;;;;;;5032877;28;20188;-85
2023/01/02 04:20:52;;;;;;;7.47;4.17;;;;;;;;;;5044294;28;20671;-85
2023/01/02 04:24:02;;;;;;;7.17;4.20;;;;;;;;;;5036794;28;20192;-85
2023/01/02 04:27:11;;;;;;;4.63;3.60;;;;;;;;;;5037305;28;20196;-84
2023/01/02 04:30:15;;;;;;;5.70;3.80;;;;;;;;;;5048773;28;20180;-85
2023/01/02 04:33:22;;;;;;;5.63;3.17;;;;;;;;;;5035446;28;20223;-85
2023/01/02 04:36:26;;;;;;;8.17;4.00;;;;;;;;;;5043212;28;20184;-85
2023/01/02 04:39:32;;;;;;;7.70;3.40;;;;;;;;;;5043867;28;20200;-85
2023/01/02 04:42:36;;;;;;;5.70;3.90;;;;;;;;;;5031798;28;20254;-85
2023/01/02 04:45:40;;;;;;;5.87;3.80;;;;;;;;;;5031656;28;20184;-85
2023/01/02 04:48:44;;;;;;;5.87;3.47;;;;;;;;;;5043668;28;20184;-85
2023/01/02 04:51:48;;;;;;;7.37;3.77;;;;;;;;;;5031492;28;20215;-85
2023/01/02 04:54:52;;;;;;;5.33;3.50;;;;;;;;;;5044503;28;20513;-85
2023/01/02 04:57:57;;;;;;;4.30;3.50;;;;;;;;;;5044015;28;20180;-85
2023/01/02 05:01:01;;;;;;;5.90;3.40;;;;;;;;;;5031749;28;20199;-85
2023/01/02 05:04:05;;;;;;;4.00;3.40;;;;;;;;;;5047636;28;20204;-85
2023/01/02 05:07:09;;;;;;;5.47;3.63;;;;;;;;;;5048204;28;20184;-85
2023/01/02 05:10:13;;;;;;;6.00;3.63;;;;;;;;;;5059632;28;20176;-85
2023/01/02 05:13:18;;;;;;;6.87;3.20;;;;;;;;;;5048818;28;20219;-85
2023/01/02 05:16:22;;;;;;;7.83;3.53;;;;;;;;;;5036777;28;20176;-85
2023/01/02 05:19:26;;;;;;;5.97;3.67;;;;;;;;;;5053767;28;20216;-86
2023/01/02 05:25:53;;;;;;;5.60;3.63;;;;;;;;;;5054322;28;20184;-85
2023/01/02 05:28:58;;;;;;;8.13;4.10;;;;;;;;;;5032355;28;20176;-86
2023/01/02 05:32:02;;;;;;;5.87;3.83;;;;;;;;;;5036015;28;20219;-84
2023/01/02 05:35:07;;;;;;;5.33;4.13;;;;;;;;;;5043599;28;20180;-85
2023/01/02 05:38:11;;;;;;;5.67;4.37;;;;;;;;;;5034420;28;20180;-85
2023/01/02 05:41:15;;;;;;;6.20;4.30;;;;;;;;;;5048091;28;20228;-85
2023/01/02 05:44:20;;;;;;;7.07;4.37;;;;;;;;;;5036061;28;20180;-84
2023/01/02 05:47:24;;;;;;;5.90;4.13;;;;;;;;;;5059307;28;20184;-85
2023/01/02 05:50:29;;;;;;;11.37;4.60;;;;;;;;;;5060033;28;20196;-85
2023/01/02 05:53:34;;;;;;;6.17;4.23;;;;;;;;;;5055320;28;20196;-85
2023/01/02 05:56:38;;;;;;;7.17;4.37;;;;;;;;;;5044992;28;20180;-85
2023/01/02 05:59:42;;;;;;;6.30;3.90;;;;;;;;;;5055577;28;20601;-85
2023/01/02 06:02:46;;;;;;;7.67;4.50;;;;;;;;;;5032831;28;20228;-85
2023/01/02 06:05:50;;;;;;;9.50;3.87;;;;;;;;;;5042886;28;20199;-85
2023/01/02 06:08:54;;;;;;;6.67;4.40;;;;;;;;;;5053110;28;20180;-86
2023/01/02 06:11:58;;;;;;;6.83;4.33;;;;;;;;;;5041884;28;20208;-86
2023/01/02 06:15:03;;;;;;;5.93;4.03;;;;;;;;;;5030201;28;20543;-86
2023/01/02 06:18:07;;;;;;;10.43;3.63;;;;;;;;;;5041832;28;20176;-86
2023/01/02 06:21:14;;;;;;;4.77;3.50;;;;;;;;;;5028494;28;20204;-85
2023/01/02 06:24:18;;;;;;;5.77;3.50;;;;;;;;;;5030560;28;20196;-85
2023/01/02 06:27:22;;;;;;;4.67;3.40;;;;;;;;;;5033586;28;20208;-86
2023/01/02 06:30:26;;;;;;;6.10;3.73;;;;;;;;;;5021952;28;20177;-86
2023/01/02 06:33:30;;;;;;;5.93;3.73;;;;;;;;;;5010887;28;20196;-86
2023/01/02 06:36:35;;;;;;;7.60;4.03;;;;;;;;;;5027327;28;20628;-85
2023/01/02 06:39:39;;;;;;;4.87;3.13;;;;;;;;;;5015444;28;20181;-86
2023/01/02 06:42:43;;;;;;;4.83;3.57;;;;;;;;;;5022087;28;20227;-85
2023/01/02 06:45:48;;;;;;;4.77;3.33;;;;;;;;;;5034420;28;20184;-85
2023/01/02 06:48:52;;;;;;;6.40;3.90;;;;;;;;;;5045645;28;20512;-85
2023/01/02 06:51:56;;;;;;;7.37;3.57;;;;;;;;;;5045781;28;20211;-85
2023/01/02 06:55:00;;;;;;;5.23;3.97;;;;;;;;;;5034965;28;20180;-85
2023/01/02 06:58:04;;;;;;;5.63;3.40;;;;;;;;;;5048681;28;20177;-85
2023/01/02 07:01:15;;;;;;;5.07;3.40;;;;;;;;;;5034453;28;20199;-85
2023/01/02 07:04:19;;;;;;;4.93;3.47;;;;;;;;;;5045000;28;20271;-86
2023/01/02 07:07:23;;;;;;;8.80;4.17;;;;;;;;;;5034193;28;20189;-86
2023/01/02 07:10:27;;;;;;;6.40;3.77;;;;;;;;;;5036086;23;20236;-80
2023/01/02 07:13:31;;;;;;;9.57;4.00;;;;;;;;;;4988953;28;20197;-80
2023/01/02 07:16:35;;;;;;;7.53;4.03;;;;;;;;;;5000870;28;20673;-80
2023/01/02 07:19:39;;;;;;;6.90;4.00;;;;;;;;;;4986016;28;20183;-81
2023/01/02 07:22:51;;;;;;;8.40;4.90;;;;;;;;;;4973556;28;20219;-81
2023/01/02 07:25:57;;;;;;;6.87;4.37;;;;;;;;;;4984679;28;20187;-80
2023/01/02 07:29:04;;;;;;;6.20;3.93;;;;;;;;;;4980382;28;29136;-81
2023/01/02 07:32:08;;;;;;;10.67;3.77;;;;;;;;;;4984944;28;20214;-81
2023/01/02 07:35:12;;;;;;;6.17;4.50;;;;;;;;;;4963076;28;20178;-81
2023/01/02 07:38:16;;;;;;;9.90;4.63;;;;;;;;;;4973428;28;20523;-79
2023/01/02 07:41:22;;;;;;;7.17;4.70;;;;;;;;;;4970736;28;20207;-79
2023/01/02 07:44:26;;;;;;;6.70;4.10;;;;;;;;;;4982767;28;20183;-80
2023/01/02 07:47:31;;;;;;;7.13;4.43;;;;;;;;;;4971267;28;20198;-80
2023/01/02 07:50:35;;;;;;;7.77;4.37;;;;;;;;;;4983931;28;20183;-80
2023/01/02 07:53:40;;;;;;;6.63;3.70;;;;;;;;;;4983472;28;20179;-79
2023/01/02 07:56:44;;;;;;;6.60;4.23;;;;;;;;;;4971576;28;20203;-80
2023/01/02 07:59:49;;;;;;;9.13;3.67;;;;;;;;;;4971215;28;20186;-79
2023/01/02 08:02:53;;;;;;;4.53;3.40;;;;;;;;;;4981974;28;20605;-80
2023/01/02 08:06:03;;;;;;;4.33;3.60;;;;;;;;;;4971061;28;20190;-80
2023/01/02 08:09:07;;;;;;;5.57;3.57;;;;;;;;;;4982152;28;20202;-81
2023/01/02 08:12:11;;;;;;;5.53;3.77;;;;;;;;;;4981558;28;20216;-80
2023/01/02 08:15:15;;;;;;;6.27;3.57;;;;;;;;;;4982028;28;20190;-80
2023/01/02 08:18:19;;;;;;;6.80;4.77;;;;;;;;;;4993568;28;20183;-81
2023/01/02 08:21:24;;;;;;;9.37;5.23;;;;;;;;;;4960200;28;20203;-80
2023/01/02 08:24:29;;;;;;;8.23;5.13;;;;;;;;;;4982452;28;20191;-80
2023/01/02 08:27:33;;;;;;;11.77;6.50;;;;;;;;;;4992621;28;20187;-80
2023/01/02 08:30:39;;;;;;;10.40;6.43;;;;;;;;;;4981650;28;20179;-82
2023/01/02 08:33:44;;;;;;;10.27;6.47;;;;;;;;;;4982325;28;20622;-79
2023/01/02 08:36:48;;;;;;;8.77;6.07;;;;;;;;;;4980629;28;20515;-79
2023/01/02 08:39:52;;;;;;;7.90;5.83;;;;;;;;;;4971308;28;20207;-79
2023/01/02 08:42:56;;;;;;;10.83;6.10;;;;;;;;;;4959282;28;20207;-79
2023/01/02 08:46:05;;;;;;;10.07;6.40;;;;;;;;;;4969312;28;20187;-79
2023/01/02 08:49:11;;;;;;;5.77;4.50;;;;;;;;;;4991094;28;20638;-79
2023/01/02 08:52:16;;;;;;;3.60;2.70;;;;;;;;;;4979560;28;20585;-80
2023/01/02 08:55:20;;;;;;;8.80;5.23;;;;;;;;;;4980090;28;20179;-80
2023/01/02 08:58:25;;;;;;;4.77;3.10;;;;;;;;;;4979814;28;20187;-79
2023/01/02 09:01:30;;;;;;;5.00;2.60;;;;;;;;;;4968665;28;20588;-79
2023/01/02 09:04:34;;;;;;;3.00;2.03;;;;;;;;;;4979824;28;20179;-79
2023/01/02 09:07:39;;;;;;;3.13;2.27;;;;;;;;;;4969513;28;20187;-80
2023/01/02 09:10:43;;;;;;;3.63;2.30;;;;;;;;;;4980472;28;20198;-81
2023/01/02 09:13:48;;;;;;;3.07;2.23;;;;;;;;;;4992543;28;20183;-79
2023/01/02 09:16:52;;;;;;;3.43;2.10;;;;;;;;;;4981429;28;20208;-79
2023/01/02 09:19:56;;;;;;;4.07;3.00;;;;;;;;;;4958661;28;20191;-81
2023/01/02 09:23:01;;;;;;;5.60;3.90;;;;;;;;;;4968568;28;20552;-80
2023/01/02 09:26:06;;;;;;;5.40;3.50;;;;;;;;;;4992437;28;20183;-80
2023/01/02 09:29:11;;;;;;;5.20;3.90;;;;;;;;;;4969795;28;20183;-80
2023/01/02 09:32:15;;;;;;;5.13;4.07;;;;;;;;;;4968850;28;20216;-80
2023/01/02 09:35:19;;;;;;;6.43;4.47;;;;;;;;;;4957301;28;20182;-79
2023/01/02 09:38:25;;;;;;;5.80;4.27;;;;;;;;;;4979360;28;20187;-79
2023/01/02 09:41:50;;;;;;;5.37;4.13;;;;;;;;;;4957212;28;20235;-80
2023/01/02 09:45:00;;;;;;;4.83;3.77;;;;;;;;;;4979441;28;20184;-79
2023/01/02 09:48:04;;;;;;;5.97;3.80;;;;;;;;;;4979263;28;20194;-79
2023/01/02 09:51:10;;;;;;;7.27;3.97;;;;;;;;;;4969197;28;20175;-80
2023/01/02 09:54:27;;;;;;;9.00;5.10;;;;;;;;;;4968043;28;20179;-82
2023/01/02 09:57:41;;;;;;;5.10;4.13;;;;;;;;;;4967849;28;20184;-82
2023/01/02 10:00:49;;;;;;;6.27;4.40;;;;;;;;;;4967559;28;20210;-83
2023/01/02 10:04:15;;;;;;;10.07;4.30;;;;;;;;;;4978773;28;20186;-81
2023/01/02 10:08:03;;;;;;;5.60;4.00;;;;;;;;;;4955474;28;20183;-80
2023/01/02 10:11:25;;;;;;;5.27;3.60;;;;;;;;;;4967665;28;20207;-81
2023/01/02 10:14:32;;;;;;;7.37;4.80;;;;;;;;;;4957273;28;20179;-81
2023/01/02 10:17:45;;;;;;;20.13;12.57;;;;;;;;;;4979667;28;20178;-82
2023/01/02 10:20:58;;;;;;;13.47;8.30;;;;;;;;;;4980118;28;20190;-81
2023/01/02 10:24:06;;;;;;;7.27;4.57;;;;;;;;;;4956499;28;20186;-80
2023/01/02 10:27:15;;;;;;;4.17;3.07;;;;;;;;;;4968626;28;20187;-80
2023/01/02 10:30:22;;;;;;;4.93;3.47;;;;;;;;;;4956957;28;20183;-81
2023/01/02 10:33:42;;;;;;;3.50;3.00;;;;;;;;;;4956457;28;20214;-81
2023/01/02 10:36:47;;;;;;;5.17;3.40;;;;;;;;;;4969048;28;20508;-79
2023/01/02 10:39:51;;;;;;;7.37;2.73;;;;;;;;;;4956517;28;20178;-80
2023/01/02 10:42:58;;;;;;;3.37;2.23;;;;;;;;;;4967599;28;20709;-80
2023/01/02 10:46:03;;;;;;;3.83;2.73;;;;;;;;;;4979179;28;20559;-80
2023/01/02 10:49:10;;;;;;;5.23;3.10;;;;;;;;;;4978671;28;20523;-80
2023/01/02 10:52:26;;;;;;;4.23;3.33;;;;;;;;;;4967488;28;20214;-81
2023/01/02 10:55:34;;;;;;;4.27;3.50;;;;;;;;;;4989081;28;20183;-81
2023/01/02 10:58:46;;;;;;;4.07;3.27;;;;;;;;;;4956905;28;20175;-80
2023/01/02 11:01:56;;;;;;;6.67;4.40;;;;;;;;;;4979075;28;20231;-80
2023/01/02 11:05:01;;;;;;;6.70;5.90;;;;;;;;;;4956920;28;20523;-81
2023/01/02 11:08:14;;;;;;;6.00;4.87;;;;;;;;;;4967464;28;20202;-80
2023/01/02 11:11:19;;;;;;;5.00;3.70;;;;;;;;;;4956392;28;20626;-80
2023/01/02 11:14:29;;;;;;;6.17;4.03;;;;;;;;;;4979702;28;20179;-80
2023/01/02 11:17:39;;;;;;;4.67;3.57;;;;;;;;;;4968074;28;20183;-80
2023/01/02 11:20:49;;;;;;;8.70;5.03;;;;;;;;;;4980093;28;20187;-80
2023/01/02 11:24:18;;;;;;;6.70;4.87;;;;;;;;;;4981897;28;20191;-80
2023/01/02 11:27:30;;;;;;;5.97;3.00;;;;;;;;;;4993372;28;20654;-79
2023/01/02 11:30:44;;;;;;;4.60;3.00;;;;;;;;;;4981881;28;20183;-80
2023/01/02 11:33:49;;;;;;;5.63;2.80;;;;;;;;;;4970936;28;20183;-80
2023/01/02 11:37:11;;;;;;;5.20;2.70;;;;;;;;;;4982712;28;20175;-79
2023/01/02 11:40:28;;;;;;;4.07;2.50;;;;;;;;;;4981874;28;20187;-81
2023/01/02 11:43:48;;;;;;;2.60;1.97;;;;;;;;;;4981386;28;20195;-79
2023/01/02 11:46:53;;;;;;;2.30;1.80;;;;;;;;;;4982940;28;20187;-80
2023/01/02 11:49:57;;;;;;;2.13;1.80;;;;;;;;;;4982413;28;20206;-81
2023/01/02 11:53:11;;;;;;;3.17;1.67;;;;;;;;;;4983369;28;20222;-81
2023/01/02 11:56:38;;;;;;;3.63;1.50;;;;;;;;;;4980924;28;20175;-79
2023/01/02 11:59:46;;;;;;;2.97;1.80;;;;;;;;;;4981398;28;20179;-80
2023/01/02 12:02:52;;;;;;;2.63;1.80;;;;;;;;;;4980852;28;20686;-80
2023/01/02 12:06:23;;;;;;;4.67;2.10;;;;;;;;;;4958161;28;20198;-82
2023/01/02 12:10:03;;;;;;;2.70;2.20;;;;;;;;;;4995456;28;20202;-81
2023/01/02 12:13:30;;;;;;;2.83;2.27;;;;;;;;;;4969753;28;20222;-80
2023/01/02 12:16:37;;;;;;;5.33;2.27;;;;;;;;;;4979764;28;20184;-80
2023/01/02 12:20:05;;;;;;;2.93;2.03;;;;;;;;;;4968642;28;20183;-81
2023/01/02 12:23:56;;;;;;;3.67;2.50;;;;;;;;;;4979511;28;20222;-79
2023/01/02 12:27:17;;;;;;;5.80;2.73;;;;;;;;;;4968223;28;20187;-79
2023/01/02 12:30:22;;;;;;;3.30;2.50;;;;;;;;;;4979120;28;20187;-81
2023/01/02 12:33:26;;;;;;;3.57;2.60;;;;;;;;;;4978204;28;20214;-81
2023/01/02 12:37:17;;;;;;;3.80;2.70;;;;;;;;;;4979908;28;20179;-80
2023/01/02 12:40:39;;;;;;;3.87;2.83;;;;;;;;;;4985101;28;20186;-81
2023/01/02 12:44:15;;;;;;;4.87;2.80;;;;;;;;;;4968235;28;20171;-80
2023/01/02 12:47:39;;;;;;;3.53;2.30;;;;;;;;;;4956895;28;20191;-80
2023/01/02 12:51:28;;;;;;;2.80;2.00;;;;;;;;;;4967984;28;20183;-80
2023/01/02 12:55:04;;;;;;;3.00;2.03;;;;;;;;;;4990490;28;20202;-80
2023/01/02 12:58:37;;;;;;;4.70;2.17;;;;;;;;;;4983027;28;20211;-80
2023/01/02 13:01:45;;;;;;;6.03;2.30;;;;;;;;;;4967384;28;20230;-81
2023/01/02 13:04:56;;;;;;;5.67;2.50;;;;;;;;;;4978470;28;20187;-79
2023/01/02 13:08:13;;;;;;;4.27;2.30;;;;;;;;;;4990361;28;20630;-79
2023/01/02 13:11:25;;;;;;;2.97;2.00;;;;;;;;;;5010210;23;20238;-90
2023/01/02 13:14:51;;;;;;;4.10;2.10;;;;;;;;;;4983219;28;20198;-90
2023/01/02 13:18:16;;;;;;;3.13;1.93;;;;;;;;;;4982550;28;20186;-90
2023/01/02 13:21:28;;;;;;;3.70;2.23;;;;;;;;;;4983942;28;20226;-90
2023/01/02 13:24:33;;;;;;;3.30;1.90;;;;;;;;;;4994873;28;20191;-89
2023/01/02 13:27:37;;;;;;;2.70;2.17;;;;;;;;;;4971979;28;20202;-90
2023/01/02 13:30:51;;;;;;;3.43;2.70;;;;;;;;;;4981426;28;20688;-89
2023/01/02 13:33:55;;;;;;;5.13;4.63;;;;;;;;;;4982466;28;20179;-89
2023/01/02 13:37:21;;;;;;;5.90;4.20;;;;;;;;;;4980503;28;20645;-90
2023/01/02 13:40:30;;;;;;;7.70;4.30;;;;;;;;;;4968515;28;20218;-89
2023/01/02 13:43:38;;;;;;;8.33;5.60;;;;;;;;;;4978372;28;20218;-89
2023/01/02 13:46:42;;;;;;;7.17;3.90;;;;;;;;;;4978302;28;20199;-89
2023/01/02 13:50:18;;;;;;;6.40;2.83;;;;;;;;;;4988896;28;20186;-89
2023/01/02 13:53:34;;;;;;;6.30;2.50;;;;;;;;;;4961617;28;20630;-89
2023/01/02 13:57:15;;;;;;;3.33;2.13;;;;;;;;;;4977883;28;20197;-90
2023/01/02 14:00:19;;;;;;;5.03;2.13;;;;;;;;;;4987903;28;20215;-89
2023/01/02 14:03:23;;;;;;;2.77;2.00;;;;;;;;;;4977503;28;20211;-89
2023/01/02 14:06:33;;;;;;;3.07;1.60;;;;;;;;;;4987435;28;20179;-89
2023/01/02 14:10:12;;;;;;;3.80;2.10;;;;;;;;;;4987646;28;20186;-89
2023/01/02 14:13:28;;;;;;;3.67;2.60;;;;;;;;;;4959240;28;20202;-89
2023/01/02 14:16:38;;;;;;;3.67;2.00;;;;;;;;;;4975411;28;20195;-89
2023/01/02 14:19:43;;;;;;;5.60;1.77;;;;;;;;;;4975946;28;20187;-89
2023/01/02 14:22:51;;;;;;;6.80;2.33;;;;;;;;;;4986639;28;20222;-90
2023/01/02 14:25:55;;;;;;;3.17;2.17;;;;;;;;;;4987397;28;20183;-90
2023/01/02 14:29:08;;;;;;;3.37;2.17;;;;;;;;;;4986496;28;20206;-91
2023/01/02 14:32:34;;;;;;;4.70;2.60;;;;;;;;;;4975817;28;20175;-90
2023/01/02 14:35:48;;;;;;;5.07;2.27;;;;;;;;;;4975388;28;20634;-90
2023/01/02 14:38:55;;;;;;;4.83;2.50;;;;;;;;;;4965132;28;20183;-89
2023/01/02 14:45:31;;;;;;;4.37;2.90;;;;;;;;;;4985899;28;20187;-88
2023/01/02 14:49:16;;;;;;;3.93;2.70;;;;;;;;;;4975145;28;20194;-89
2023/01/02 14:52:32;;;;;;;3.63;2.50;;;;;;;;;;4974924;28;20175;-90
2023/01/02 14:55:38;;;;;;;4.77;2.50;;;;;;;;;;4987138;28;20670;-89
2023/01/02 14:58:45;;;;;;;4.50;2.90;;;;;;;;;;4978941;28;20187;-88
2023/01/02 15:01:55;;;;;;;4.37;2.30;;;;;;;;;;4967265;28;20247;-89
2023/01/02 15:05:05;;;;;;;3.43;2.00;;;;;;;;;;4978713;28;20183;-89
2023/01/02 15:08:11;;;;;;;4.90;2.50;;;;;;;;;;4989812;28;20638;-89
2023/01/02 15:14:43;;;;;;;2.60;1.77;;;;;;;;;;4978537;28;20514;-89
2023/01/02 15:17:48;;;;;;;3.27;2.13;;;;;;;;;;4978304;28;20539;-90
2023/01/02 15:20:53;;;;;;;3.80;1.67;;;;;;;;;;4989413;28;20214;-90
2023/01/02 15:24:00;;;;;;;4.37;2.30;;;;;;;;;;4977697;28;20210;-89
2023/01/02 15:27:20;;;;;;;3.07;1.50;;;;;;;;;;4977903;28;20183;-89
2023/01/02 15:30:33;;;;;;;5.23;2.17;;;;;;;;;;4967584;28;20219;-91
2023/01/02 15:33:37;;;;;;;4.17;1.83;;;;;;;;;;4966784;28;20662;-89
2023/01/02 15:36:41;;;;;;;5.40;2.27;;;;;;;;;;4966889;28;20187;-89
2023/01/02 15:39:48;;;;;;;3.20;1.87;;;;;;;;;;4978226;28;20179;-89
2023/01/02 15:46:17;;;;;;;3.07;1.90;;;;;;;;;;4988275;28;20183;-91
2023/01/02 15:49:23;;;;;;;5.27;2.40;;;;;;;;;;4977899;28;20626;-90
2023/01/02 15:52:30;;;;;;;2.90;2.10;;;;;;;;;;4988653;28;20183;-91
2023/01/02 15:55:37;;;;;;;3.43;2.23;;;;;;;;;;4988881;28;20179;-91
2023/01/02 15:58:48;;;;;;;3.60;2.27;;;;;;;;;;4966288;28;20561;-90
2023/01/02 16:01:53;;;;;;;5.37;2.10;;;;;;;;;;4988002;28;20218;-90
2023/01/02 16:05:17;;;;;;;5.27;2.40;;;;;;;;;;4988829;28;20181;-91
2023/01/02 16:08:24;;;;;;;4.27;2.63;;;;;;;;;;4976275;28;20534;-91
2023/01/02 16:11:28;;;;;;;4.23;2.33;;;;;;;;;;4977808;28;20230;-89
2023/01/02 16:14:42;;;;;;;2.43;1.90;;;;;;;;;;4956170;28;20175;-90
2023/01/02 16:17:47;;;;;;;4.23;2.33;;;;;;;;;;4978031;28;20187;-90
2023/01/02 16:20:58;;;;;;;4.50;2.60;;;;;;;;;;4977844;28;20218;-91
2023/01/02 16:24:03;;;;;;;5.80;2.93;;;;;;;;;;4977152;28;20207;-92
2023/01/02 16:27:12;;;;;;;4.83;2.80;;;;;;;;;;4988731;28;20199;-92
2023/01/02 16:30:28;;;;;;;5.20;2.73;;;;;;;;;;4966223;28;20223;-91
2023/01/02 16:33:33;;;;;;;4.23;2.40;;;;;;;;;;4977382;28;20630;-89
2023/01/02 16:36:37;;;;;;;3.93;2.40;;;;;;;;;;4977233;28;20178;-89
2023/01/02 16:39:49;;;;;;;6.30;2.10;;;;;;;;;;4977020;28;20186;-88
2023/01/02 16:43:01;;;;;;;3.90;2.50;;;;;;;;;;4965961;28;20214;-89
2023/01/02 16:46:10;;;;;;;3.27;2.40;;;;;;;;;;4989153;28;20182;-89
2023/01/02 16:49:22;;;;;;;4.13;2.50;;;;;;;;;;4977279;28;20623;-88
2023/01/02 16:52:26;;;;;;;5.17;2.80;;;;;;;;;;4977150;28;20631;-86
2023/01/02 16:55:30;;;;;;;6.70;5.00;;;;;;;;;;4966091;28;20182;-86
2023/01/02 16:58:34;;;;;;;5.47;3.00;;;;;;;;;;4977010;28;20634;-86
2023/01/02 17:01:37;;;;;;;18.80;8.00;;;;;;;;;;4976525;28;20220;-86
2023/01/02 17:04:42;;;;;;;9.10;6.37;;;;;;;;;;4976769;28;20211;-87
2023/01/02 17:07:46;;;;;;;8.00;5.70;;;;;;;;;;4978194;28;20539;-89
2023/01/02 17:10:51;;;;;;;12.47;4.73;;;;;;;;;;4966901;28;20222;-89
2023/01/02 17:13:55;;;;;;;6.20;4.33;;;;;;;;;;4987748;28;20175;-86
2023/01/02 17:16:59;;;;;;;13.63;11.80;;;;;;;;;;4976596;28;20178;-86
2023/01/02 17:20:04;;;;;;;9.07;7.27;;;;;;;;;;4964713;28;20218;-86
2023/01/02 17:23:08;;;;;;;7.93;4.77;;;;;;;;;;4976056;28;20211;-85
2023/01/02 17:26:12;;;;;;;7.63;5.03;;;;;;;;;;4975813;28;20182;-86
2023/01/02 17:29:16;;;;;;;9.23;5.50;;;;;;;;;;4976214;28;20187;-86
2023/01/02 17:32:20;;;;;;;7.27;5.43;;;;;;;;;;4987074;28;20203;-86
2023/01/02 17:35:25;;;;;;;8.80;5.50;;;;;;;;;;4986359;28;20198;-89
2023/01/02 17:38:29;;;;;;;8.47;5.40;;;;;;;;;;4987217;28;20194;-87
2023/01/02 17:41:33;;;;;;;6.93;4.90;;;;;;;;;;4975289;28;20216;-87
2023/01/02 17:44:37;;;;;;;6.87;4.47;;;;;;;;;;4975662;28;20206;-86
2023/01/02 17:47:41;;;;;;;5.97;4.20;;;;;;;;;;4987250;28;20183;-86
2023/01/02 17:50:49;;;;;;;9.53;4.67;;;;;;;;;;4976604;28;20230;-86
2023/01/02 17:53:54;;;;;;;8.33;4.23;;;;;;;;;;4976724;28;20183;-86
2023/01/02 17:56:58;;;;;;;5.20;3.30;;;;;;;;;;4976798;28;20191;-86
2023/01/02 18:00:06;;;;;;;4.50;2.60;;;;;;;;;;4964780;28;20222;-88
2023/01/02 18:03:20;;;;;;;5.50;2.83;;;;;;;;;;4975363;28;20219;-88
2023/01/02 18:06:25;;;;;;;4.73;2.10;;;;;;;;;;4952878;28;20178;-88
2023/01/02 18:09:30;;;;;;;8.70;2.57;;;;;;;;;;4987187;28;20186;-87
2023/01/02 18:12:35;;;;;;;4.90;2.40;;;;;;;;;;4975467;28;20546;-88
2023/01/02 18:15:39;;;;;;;5.67;2.60;;;;;;;;;;4975517;28;20179;-88
2023/01/02 18:18:44;;;;;;;3.90;2.70;;;;;;;;;;4976027;28;20542;-88
2023/01/02 18:21:49;;;;;;;22.63;15.00;;;;;;;;;;4975409;28;20593;-88
2023/01/02 18:24:54;;;;;;;17.67;12.23;;;;;;;;;;4975485;28;20226;-88
2023/01/02 18:28:12;;;;;;;8.57;6.33;;;;;;;;;;4975615;28;20186;-88
2023/01/02 18:31:19;;;;;;;10.47;7.63;;;;;;;;;;4986169;28;20219;-88
2023/01/02 18:34:25;;;;;;;7.97;5.43;;;;;;;;;;4975403;28;20175;-88
2023/01/02 18:37:31;;;;;;;8.03;3.63;;;;;;;;;;4975823;28;20638;-88
2023/01/02 18:40:35;;;;;;;4.37;2.90;;;;;;;;;;4975782;28;20226;-88
2023/01/02 18:43:40;;;;;;;7.27;3.10;;;;;;;;;;4964350;28;20214;-88
2023/01/02 18:46:44;;;;;;;6.43;3.60;;;;;;;;;;4986972;28;20633;-88
2023/01/02 18:49:49;;;;;;;5.20;3.30;;;;;;;;;;4987050;28;20524;-88
2023/01/02 18:52:53;;;;;;;8.47;3.20;;;;;;;;;;4964720;28;20187;-88
2023/01/02 18:56:22;;;;;;;5.93;3.17;;;;;;;;;;4986523;28;20630;-88
2023/01/02 18:59:31;;;;;;;4.17;2.60;;;;;;;;;;4964063;28;20186;-88
2023/01/02 19:02:53;;;;;;;8.97;3.03;;;;;;;;;;4974455;28;20183;-88
2023/01/02 19:05:59;;;;;;;5.80;2.87;;;;;;;;;;4974737;28;20175;-88
2023/01/02 19:09:12;;;;;;;6.30;3.20;;;;;;;;;;4985892;28;20183;-88